createdAt,value
2018-05-27T00:00:59.305Z,6.93
2018-05-27T00:03:26.772Z,6.18
2018-05-27T00:05:54.239Z,6.75
2018-05-27T00:08:21.693Z,7.10
2018-05-27T00:10:49.141Z,7.20
2018-05-27T00:13:16.601Z,6.55
2018-05-27T00:15:44.042Z,6.30
2018-05-27T00:18:11.498Z,6.72
2018-05-27T00:20:38.961Z,6.37
2018-05-27T00:23:06.417Z,7.00
2018-05-27T00:25:33.870Z,6.68
2018-05-27T00:28:01.335Z,7.30
2018-05-27T00:30:28.842Z,7.40
2018-05-27T00:32:56.306Z,7.10
2018-05-27T00:35:23.756Z,6.53
2018-05-27T00:37:51.202Z,6.50
2018-05-27T00:40:18.659Z,6.85
2018-05-27T00:42:46.098Z,7.30
2018-05-27T00:45:13.561Z,6.93
2018-05-27T00:47:40.989Z,7.18
2018-05-27T00:50:08.448Z,7.03
2018-05-27T00:52:35.907Z,7.18
2018-05-27T00:55:03.372Z,7.15
2018-05-27T00:57:30.829Z,7.55
2018-05-27T00:59:58.281Z,6.62
2018-05-27T01:02:25.733Z,7.57
2018-05-27T01:04:53.205Z,7.70
2018-05-27T01:07:20.645Z,8.00
2018-05-27T01:09:48.118Z,8.48
2018-05-27T01:12:15.564Z,7.40
2018-05-27T01:14:43.025Z,7.20
2018-05-27T01:17:10.475Z,7.15
2018-05-27T01:19:38.000Z,7.60
2018-05-27T01:22:05.446Z,7.53
2018-05-27T01:24:32.924Z,7.78
2018-05-27T01:27:00.386Z,7.43
2018-05-27T01:29:27.860Z,8.20
2018-05-27T01:31:55.314Z,7.62
2018-05-27T01:34:22.777Z,7.72
2018-05-27T01:36:50.253Z,7.75
2018-05-27T01:39:17.715Z,7.55
2018-05-27T01:41:45.175Z,7.68
2018-05-27T01:44:12.625Z,6.93
2018-05-27T01:46:40.084Z,7.72
2018-05-27T01:49:07.546Z,7.60
2018-05-27T01:51:34.996Z,7.20
2018-05-27T01:54:02.439Z,7.45
2018-05-27T01:56:29.947Z,6.82
2018-05-27T01:58:57.412Z,7.53
2018-05-27T02:01:25.646Z,8.40
2018-05-27T02:03:53.107Z,8.25
2018-05-27T02:06:20.571Z,8.80
2018-05-27T02:08:48.032Z,7.95
2018-05-27T02:11:15.574Z,7.85
2018-05-27T02:13:43.033Z,8.27
2018-05-27T02:16:10.518Z,7.70
2018-05-27T02:18:37.985Z,7.97
2018-05-27T02:21:05.451Z,8.48
2018-05-27T02:23:32.899Z,8.88
2018-05-27T02:26:00.383Z,8.23
2018-05-27T02:28:27.851Z,8.85
2018-05-27T02:30:55.322Z,8.32
2018-05-27T02:33:22.761Z,8.30
2018-05-27T02:35:50.221Z,8.43
2018-05-27T02:38:17.681Z,9.05
2018-05-27T02:40:45.131Z,8.93
2018-05-27T02:43:12.584Z,9.40
2018-05-27T02:45:40.072Z,9.43
2018-05-27T02:48:07.524Z,9.32
2018-05-27T02:50:35.002Z,9.25
2018-05-27T02:53:02.468Z,9.35
2018-05-27T02:55:29.936Z,9.43
2018-05-27T02:57:57.426Z,8.65
2018-05-27T03:00:25.658Z,9.07
2018-05-27T03:02:53.119Z,8.35
2018-05-27T03:05:20.574Z,9.13
2018-05-27T03:07:48.043Z,9.35
2018-05-27T03:10:15.493Z,9.30
2018-05-27T03:12:42.954Z,8.50
2018-05-27T03:15:10.405Z,8.20
2018-05-27T03:17:37.869Z,9.05
2018-05-27T03:20:05.329Z,9.05
2018-05-27T03:22:32.791Z,9.35
2018-05-27T03:25:00.239Z,9.13
2018-05-27T03:27:28.601Z,9.05
2018-05-27T03:29:56.072Z,9.35
2018-05-27T03:32:24.292Z,9.65
2018-05-27T03:34:51.743Z,9.52
2018-05-27T03:37:19.219Z,9.90
2018-05-27T03:39:46.680Z,10.30
2018-05-27T03:42:14.154Z,10.05
2018-05-27T03:44:41.615Z,9.88
2018-05-27T03:47:09.094Z,10.35
2018-05-27T03:49:36.556Z,10.32
2018-05-27T03:52:04.018Z,10.05
2018-05-27T03:54:31.474Z,9.32
2018-05-27T03:56:58.958Z,9.23
2018-05-27T03:59:26.423Z,9.63
2018-05-27T04:01:53.888Z,10.20
2018-05-27T04:07:51.380Z,10.38
2018-05-27T04:10:18.842Z,10.50
2018-05-27T04:12:46.336Z,10.95
2018-05-27T04:15:13.955Z,11.02
2018-05-27T04:17:42.212Z,10.20
2018-05-27T04:20:09.685Z,9.57
2018-05-27T04:22:37.928Z,9.38
2018-05-27T04:25:05.407Z,9.88
2018-05-27T04:27:32.876Z,10.13
2018-05-27T04:30:00.339Z,9.73
2018-05-27T04:32:27.810Z,9.88
2018-05-27T04:34:55.257Z,10.32
2018-05-27T04:37:22.706Z,10.45
2018-05-27T04:39:50.176Z,10.30
2018-05-27T04:42:17.635Z,10.27
2018-05-27T04:44:45.101Z,9.90
2018-05-27T04:47:12.552Z,8.85
2018-05-27T04:49:40.026Z,9.65
2018-05-27T04:52:07.485Z,10.40
2018-05-27T04:54:34.970Z,10.70
2018-05-27T04:57:03.214Z,10.60
2018-05-27T04:59:30.695Z,10.38
2018-05-27T05:01:58.171Z,9.85
2018-05-27T05:04:25.626Z,10.00
2018-05-27T05:06:53.144Z,10.32
2018-05-27T05:09:20.604Z,10.55
2018-05-27T05:11:48.067Z,11.15
2018-05-27T05:14:15.538Z,11.00
2018-05-27T05:16:43.039Z,10.68
2018-05-27T05:19:10.503Z,9.05
2018-05-27T05:21:37.959Z,10.90
2018-05-27T05:24:06.270Z,10.02
2018-05-27T05:26:33.808Z,8.77
2018-05-27T05:29:01.300Z,10.57
2018-05-27T05:31:29.562Z,10.43
2018-05-27T05:33:57.028Z,10.35
2018-05-27T05:36:24.560Z,9.73
2018-05-27T05:38:52.760Z,9.32
2018-05-27T05:41:20.232Z,10.60
2018-05-27T05:43:47.706Z,10.48
2018-05-27T05:46:15.172Z,9.43
2018-05-27T05:48:43.409Z,9.35
2018-05-27T05:51:10.874Z,9.18
2018-05-27T05:53:38.333Z,8.82
2018-05-27T05:56:05.824Z,10.35
2018-05-27T05:58:33.279Z,9.65
2018-05-27T06:01:00.756Z,10.18
2018-05-27T06:03:28.991Z,9.50
2018-05-27T06:05:56.468Z,10.75
2018-05-27T06:08:23.962Z,10.15
2018-05-27T06:10:52.201Z,10.65
2018-05-27T06:13:19.659Z,10.27
2018-05-27T06:15:47.152Z,10.00
2018-05-27T06:18:14.615Z,9.30
2018-05-27T06:20:42.092Z,10.02
2018-05-27T06:23:10.314Z,10.10
2018-05-27T06:25:37.796Z,9.65
2018-05-27T06:28:06.243Z,9.68
2018-05-27T06:30:34.527Z,10.00
2018-05-27T06:33:01.989Z,9.68
2018-05-27T06:35:29.861Z,10.40
2018-05-27T06:37:57.333Z,9.55
2018-05-27T06:40:25.577Z,9.60
2018-05-27T06:42:53.039Z,10.52
2018-05-27T06:45:20.515Z,9.90
2018-05-27T06:47:48.760Z,10.55
2018-05-27T06:50:16.211Z,9.88
2018-05-27T06:52:43.670Z,10.13
2018-05-27T06:55:11.147Z,10.27
2018-05-27T06:57:38.609Z,10.00
2018-05-27T07:00:06.083Z,10.38
2018-05-27T07:02:33.567Z,10.50
2018-05-27T07:05:01.800Z,9.55
2018-05-27T07:07:29.272Z,10.05
2018-05-27T07:09:56.735Z,9.25
2018-05-27T07:12:24.216Z,9.82
2018-05-27T07:14:51.681Z,10.02
2018-05-27T07:17:19.148Z,10.48
2018-05-27T07:19:47.382Z,10.60
2018-05-27T07:22:14.860Z,10.35
2018-05-27T07:24:42.320Z,10.57
2018-05-27T07:27:09.792Z,11.10
2018-05-27T07:29:37.254Z,10.10
2018-05-27T07:32:04.717Z,10.00
2018-05-27T07:34:32.206Z,9.55
2018-05-27T07:36:59.629Z,8.60
2018-05-27T07:39:27.090Z,9.68
2018-05-27T07:41:54.565Z,9.63
2018-05-27T07:44:22.016Z,9.50
2018-05-27T07:46:49.479Z,10.05
2018-05-27T07:49:16.949Z,9.80
2018-05-27T07:51:44.426Z,9.25
2018-05-27T07:54:11.900Z,10.02
2018-05-27T07:56:39.376Z,9.20
2018-05-27T07:59:07.621Z,8.90
2018-05-27T08:01:35.100Z,10.32
2018-05-27T08:04:02.541Z,11.52
2018-05-27T08:06:30.015Z,12.80
2018-05-27T08:08:57.493Z,11.85
2018-05-27T08:11:24.971Z,11.45
2018-05-27T08:13:52.424Z,12.93
2018-05-27T08:16:20.649Z,12.07
2018-05-27T08:18:48.127Z,12.10
2018-05-27T08:21:15.597Z,11.68
2018-05-27T08:23:43.063Z,11.88
2018-05-27T08:26:10.516Z,12.70
2018-05-27T08:28:37.978Z,12.93
2018-05-27T08:33:40.072Z,11.12
2018-05-27T08:36:07.531Z,10.82
2018-05-27T08:38:35.003Z,12.70
2018-05-27T08:41:02.464Z,13.32
2018-05-27T08:43:29.956Z,12.95
2018-05-27T08:45:57.467Z,10.90
2018-05-27T08:48:24.935Z,11.27
2018-05-27T08:50:52.408Z,12.05
2018-05-27T08:53:19.879Z,14.52
2018-05-27T08:55:47.349Z,12.43
2018-05-27T08:58:14.837Z,10.95
2018-05-27T09:00:43.048Z,11.52
2018-05-27T09:03:11.287Z,10.50
2018-05-27T09:05:39.511Z,10.77
2018-05-27T09:08:06.986Z,11.48
2018-05-27T09:10:34.451Z,12.60
2018-05-27T09:13:01.925Z,12.18
2018-05-27T09:15:29.392Z,12.27
2018-05-27T09:17:56.868Z,11.20
2018-05-27T09:20:24.343Z,10.88
2018-05-27T09:22:51.809Z,10.60
2018-05-27T09:25:20.057Z,10.40
2018-05-27T09:27:47.509Z,12.25
2018-05-27T09:30:14.987Z,10.95
2018-05-27T09:32:42.442Z,10.75
2018-05-27T09:35:09.903Z,13.15
2018-05-27T09:37:37.373Z,10.88
2018-05-27T09:40:04.841Z,8.73
2018-05-27T09:42:32.301Z,8.63
2018-05-27T09:44:59.781Z,8.27
2018-05-27T09:47:27.258Z,8.05
2018-05-27T09:49:55.494Z,8.88
2018-05-27T09:52:22.977Z,8.68
2018-05-27T09:54:50.445Z,8.88
2018-05-27T09:57:17.898Z,8.95
2018-05-27T09:59:45.439Z,9.48
2018-05-27T10:02:12.910Z,8.75
2018-05-27T10:04:40.382Z,10.18
2018-05-27T10:07:07.836Z,8.73
2018-05-27T10:09:35.662Z,10.43
2018-05-27T10:12:03.121Z,11.00
2018-05-27T10:14:31.364Z,8.43
2018-05-27T10:16:58.812Z,7.45
2018-05-27T10:19:26.296Z,7.80
2018-05-27T10:21:53.749Z,7.40
2018-05-27T10:24:21.202Z,8.00
2018-05-27T10:26:48.682Z,7.47
2018-05-27T10:29:16.149Z,7.37
2018-05-27T10:31:43.636Z,7.37
2018-05-27T10:34:11.828Z,6.72
2018-05-27T10:36:39.294Z,7.40
2018-05-27T10:39:07.742Z,6.93
2018-05-27T10:41:35.199Z,6.35
2018-05-27T10:44:02.663Z,6.40
2018-05-27T10:46:30.128Z,6.68
2018-05-27T10:48:57.583Z,6.00
2018-05-27T10:51:25.047Z,6.25
2018-05-27T10:53:52.491Z,5.82
2018-05-27T10:56:19.951Z,7.00
2018-05-27T10:58:47.412Z,6.07
2018-05-27T11:01:14.895Z,6.30
2018-05-27T11:03:42.338Z,6.82
2018-05-27T11:06:09.799Z,6.12
2018-05-27T11:08:37.257Z,6.50
2018-05-27T11:11:04.733Z,7.68
2018-05-27T11:13:32.185Z,8.48
2018-05-27T11:15:59.733Z,7.87
2018-05-27T11:18:27.236Z,7.97
2018-05-27T11:20:54.719Z,7.12
2018-05-27T11:23:22.181Z,7.22
2018-05-27T11:25:50.429Z,7.65
2018-05-27T11:28:17.879Z,6.85
2018-05-27T11:30:45.340Z,8.23
2018-05-27T11:33:12.834Z,7.62
2018-05-27T11:35:40.292Z,7.60
2018-05-27T11:38:07.752Z,7.30
2018-05-27T11:40:35.192Z,6.70
2018-05-27T11:43:02.681Z,7.07
2018-05-27T11:45:30.131Z,6.35
2018-05-27T11:47:57.594Z,6.85
2018-05-27T11:50:26.436Z,6.75
2018-05-27T11:52:53.917Z,6.95
2018-05-27T11:55:21.418Z,6.68
2018-05-27T11:57:48.866Z,6.07
2018-05-27T12:00:16.338Z,6.53
2018-05-27T12:02:43.797Z,7.00
2018-05-27T12:05:11.280Z,6.72
2018-05-27T12:07:38.749Z,6.35
2018-05-27T12:10:06.193Z,6.03
2018-05-27T12:12:33.641Z,6.00
2018-05-27T12:15:01.105Z,6.40
2018-05-27T12:17:28.554Z,6.20
2018-05-27T12:19:55.989Z,6.37
2018-05-27T12:22:23.436Z,5.68
2018-05-27T12:24:51.674Z,5.10
2018-05-27T12:27:19.147Z,5.25
2018-05-27T12:29:46.668Z,5.55
2018-05-27T12:32:14.078Z,6.32
2018-05-27T12:34:41.530Z,5.82
2018-05-27T12:37:08.985Z,6.32
2018-05-27T12:39:36.432Z,5.57
2018-05-27T12:42:03.891Z,5.35
2018-05-27T12:44:31.372Z,5.07
2018-05-27T12:46:58.829Z,5.00
2018-05-27T12:49:26.281Z,5.30
2018-05-27T12:51:53.737Z,4.87
2018-05-27T12:54:21.212Z,5.15
2018-05-27T12:56:48.681Z,4.95
2018-05-27T12:59:16.143Z,5.78
2018-05-27T13:01:44.587Z,5.18
2018-05-27T13:04:12.056Z,5.78
2018-05-27T13:06:39.513Z,5.25
2018-05-27T13:09:06.979Z,3.65
2018-05-27T13:11:34.424Z,3.58
2018-05-27T13:14:02.658Z,3.72
2018-05-27T13:16:30.159Z,4.10
2018-05-27T13:18:57.575Z,3.53
2018-05-27T13:21:25.998Z,3.70
2018-05-27T13:23:54.239Z,3.37
2018-05-27T13:26:21.691Z,3.08
2018-05-27T13:28:49.152Z,3.40
2018-05-27T13:31:16.835Z,3.72
2018-05-27T13:33:44.304Z,3.65
2018-05-27T13:36:12.295Z,3.55
2018-05-27T13:38:39.819Z,3.28
2018-05-27T13:41:07.273Z,4.05
2018-05-27T13:43:34.747Z,3.92
2018-05-27T13:46:02.194Z,4.10
2018-05-27T13:48:29.679Z,3.70
2018-05-27T13:50:57.133Z,3.65
2018-05-27T13:53:24.586Z,4.12
2018-05-27T13:55:52.968Z,3.62
2018-05-27T13:58:20.423Z,3.87
2018-05-27T14:00:47.893Z,3.65
2018-05-27T14:03:15.349Z,3.35
2018-05-27T14:05:42.817Z,3.47
2018-05-27T14:08:11.235Z,3.70
2018-05-27T14:10:38.695Z,3.55
2018-05-27T14:13:06.164Z,3.65
2018-05-27T14:15:33.696Z,3.60
2018-05-27T14:18:02.038Z,4.28
2018-05-27T14:20:30.281Z,3.72
2018-05-27T14:22:57.753Z,4.03
2018-05-27T14:25:25.202Z,3.50
2018-05-27T14:27:54.873Z,3.72
2018-05-27T14:30:22.333Z,3.87
2018-05-27T14:32:50.546Z,3.62
2018-05-27T14:35:18.192Z,4.03
2018-05-27T14:37:45.666Z,3.95
2018-05-27T14:40:13.147Z,3.42
2018-05-27T14:42:40.600Z,4.20
2018-05-27T14:45:08.061Z,3.55
2018-05-27T14:47:35.510Z,3.50
2018-05-27T14:50:02.975Z,3.83
2018-05-27T14:52:30.434Z,3.92
2018-05-27T14:54:57.905Z,3.80
2018-05-27T14:57:25.388Z,3.58
2018-05-27T14:59:52.862Z,3.67
2018-05-27T15:02:20.337Z,3.70
2018-05-27T15:04:47.796Z,4.15
2018-05-27T15:07:15.245Z,4.07
2018-05-27T15:09:42.696Z,3.85
2018-05-27T15:12:10.257Z,3.83
2018-05-27T15:14:37.627Z,3.95
2018-05-27T15:17:05.089Z,4.05
2018-05-27T15:19:32.548Z,3.83
2018-05-27T15:22:00.015Z,3.58
2018-05-27T15:24:27.471Z,3.58
2018-05-27T15:26:54.990Z,8.90
2018-05-27T15:29:23.192Z,6.43
2018-05-27T15:31:51.446Z,5.60
2018-05-27T15:34:19.664Z,5.12
2018-05-27T15:36:47.106Z,4.68
2018-05-27T15:39:14.576Z,4.53
2018-05-27T15:41:42.029Z,4.95
2018-05-27T15:44:09.508Z,4.10
2018-05-27T15:46:36.987Z,4.07
2018-05-27T15:49:04.457Z,4.97
2018-05-27T15:51:31.940Z,3.72
2018-05-27T15:53:59.390Z,3.90
2018-05-27T15:56:26.845Z,3.62
2018-05-27T15:58:54.326Z,3.45
2018-05-27T16:01:21.790Z,4.07
2018-05-27T16:03:49.286Z,4.10
2018-05-27T16:06:16.735Z,3.85
2018-05-27T16:08:44.981Z,3.42
2018-05-27T16:11:12.453Z,3.90
2018-05-27T16:13:39.922Z,4.15
2018-05-27T16:16:07.369Z,3.60
2018-05-27T16:18:34.829Z,3.80
2018-05-27T16:21:02.285Z,4.07
2018-05-27T16:23:29.745Z,3.40
2018-05-27T16:25:57.200Z,3.83
2018-05-27T16:28:24.672Z,4.00
2018-05-27T16:30:52.110Z,3.55
2018-05-27T16:33:19.562Z,4.10
2018-05-27T16:35:47.024Z,3.75
2018-05-27T16:38:14.470Z,3.85
2018-05-27T16:40:42.766Z,4.18
2018-05-27T16:43:10.182Z,3.67
2018-05-27T16:45:37.647Z,3.95
2018-05-27T16:48:05.109Z,4.00
2018-05-27T16:50:32.576Z,3.70
2018-05-27T16:53:00.045Z,3.75
2018-05-27T16:55:27.561Z,4.07
2018-05-27T16:57:55.040Z,4.20
2018-05-27T17:00:22.511Z,4.10
2018-05-27T17:02:49.936Z,3.72
2018-05-27T17:05:17.399Z,3.50
2018-05-27T17:07:44.871Z,4.10
2018-05-27T17:10:13.118Z,3.78
2018-05-27T17:12:41.346Z,4.07
2018-05-27T17:15:08.836Z,3.85
2018-05-27T17:17:36.292Z,3.83
2018-05-27T17:20:03.752Z,3.92
2018-05-27T17:22:31.198Z,4.37
2018-05-27T17:24:58.669Z,4.10
2018-05-27T17:27:26.198Z,3.58
2018-05-27T17:29:53.677Z,3.35
2018-05-27T17:32:21.911Z,3.70
2018-05-27T17:34:49.374Z,3.90
2018-05-27T17:37:17.620Z,3.53
2018-05-27T17:39:45.106Z,3.75
2018-05-27T17:42:12.556Z,3.67
2018-05-27T17:44:40.023Z,3.75
2018-05-27T17:47:07.555Z,3.85
2018-05-27T17:49:34.998Z,3.50
2018-05-27T17:52:02.461Z,4.07
2018-05-27T17:54:30.691Z,4.10
2018-05-27T17:56:58.154Z,3.80
2018-05-27T17:59:25.628Z,4.35
2018-05-27T18:01:53.850Z,4.20
2018-05-27T18:04:21.326Z,3.90
2018-05-27T18:06:48.774Z,4.10
2018-05-27T18:09:17.004Z,4.20
2018-05-27T18:11:44.481Z,4.45
2018-05-27T18:14:12.692Z,3.80
2018-05-27T18:16:40.159Z,3.55
2018-05-27T18:19:07.624Z,4.45
2018-05-27T18:21:35.102Z,4.18
2018-05-27T18:24:02.559Z,4.28
2018-05-27T18:26:30.011Z,4.20
2018-05-27T18:28:57.467Z,4.05
2018-05-27T18:31:25.034Z,5.12
2018-05-27T18:33:52.489Z,4.22
2018-05-27T18:36:19.974Z,4.25
2018-05-27T18:38:47.453Z,5.05
2018-05-27T18:41:14.911Z,4.50
2018-05-27T18:43:42.370Z,4.87
2018-05-27T18:46:09.837Z,5.00
2018-05-27T18:48:37.292Z,6.00
2018-05-27T18:51:06.678Z,9.00
2018-05-27T18:53:34.124Z,6.28
2018-05-27T18:56:01.582Z,5.47
2018-05-27T18:58:30.777Z,4.45
2018-05-27T19:00:59.032Z,7.15
2018-05-27T19:03:26.479Z,7.65
2018-05-27T19:05:53.941Z,5.93
2018-05-27T19:08:22.373Z,6.22
2018-05-27T19:10:49.863Z,6.65
2018-05-27T19:13:17.337Z,6.80
2018-05-27T19:15:44.807Z,5.85
2018-05-27T19:18:12.254Z,6.65
2018-05-27T19:20:39.709Z,6.75
2018-05-27T19:23:07.167Z,6.75
2018-05-27T19:25:34.624Z,6.80
2018-05-27T19:28:02.070Z,6.82
2018-05-27T19:30:29.553Z,6.85
2018-05-27T19:32:57.013Z,7.32
2018-05-27T19:35:24.551Z,7.68
2018-05-27T19:37:52.781Z,7.85
2018-05-27T19:40:20.254Z,8.00
2018-05-27T19:42:47.726Z,6.62
2018-05-27T19:45:15.195Z,7.62
2018-05-27T19:47:42.676Z,7.75
2018-05-27T19:50:10.937Z,7.03
2018-05-27T19:52:38.446Z,7.50
2018-05-27T19:55:05.920Z,7.62
2018-05-27T19:57:33.381Z,6.95
2018-05-27T20:00:00.810Z,6.53
2018-05-27T20:02:29.049Z,6.25
2018-05-27T20:04:56.508Z,6.80
2018-05-27T20:07:24.022Z,7.30
2018-05-27T20:09:52.302Z,7.22
2018-05-27T20:12:19.724Z,7.10
2018-05-27T20:14:47.205Z,7.12
2018-05-27T20:17:14.656Z,7.05
2018-05-27T20:19:42.125Z,7.05
2018-05-27T20:22:09.589Z,6.93
2018-05-27T20:24:37.051Z,6.80
2018-05-27T20:27:04.531Z,6.85
2018-05-27T20:29:32.759Z,6.82
2018-05-27T20:32:00.231Z,6.80
2018-05-27T20:34:27.708Z,6.72
2018-05-27T20:36:55.165Z,6.43
2018-05-27T20:42:13.753Z,7.10
2018-05-27T20:44:41.200Z,7.15
2018-05-27T20:47:08.653Z,8.30
2018-05-27T20:49:36.140Z,7.47
2018-05-27T20:52:03.598Z,8.10
2018-05-27T20:54:31.079Z,7.37
2018-05-27T20:56:58.608Z,7.85
2018-05-27T20:59:26.081Z,7.87
2018-05-27T21:01:53.535Z,7.75
2018-05-27T21:04:20.980Z,7.12
2018-05-27T21:06:48.432Z,8.63
2018-05-27T21:09:15.891Z,7.53
2018-05-27T21:11:44.110Z,8.25
2018-05-27T21:14:11.597Z,7.97
2018-05-27T21:16:39.812Z,8.35
2018-05-27T21:19:07.303Z,8.48
2018-05-27T21:21:35.519Z,8.93
2018-05-27T21:24:03.743Z,8.18
2018-05-27T21:26:31.197Z,9.27
2018-05-27T21:28:58.649Z,8.57
2018-05-27T21:31:26.109Z,8.50
2018-05-27T21:33:53.576Z,8.48
2018-05-27T21:36:21.044Z,8.63
2018-05-27T21:38:48.526Z,8.65
2018-05-27T21:41:15.996Z,8.68
2018-05-27T21:43:43.471Z,8.50
2018-05-27T21:46:10.936Z,8.77
2018-05-27T21:48:38.355Z,8.07
2018-05-27T21:51:05.823Z,8.75
2018-05-27T21:53:33.287Z,9.38
2018-05-27T21:56:00.815Z,9.32
2018-05-27T21:58:29.076Z,9.85
2018-05-27T22:00:56.576Z,10.13
2018-05-27T22:03:24.791Z,9.63
2018-05-27T22:05:52.265Z,10.45
2018-05-27T22:08:19.777Z,10.60
2018-05-27T22:10:48.009Z,10.57
2018-05-27T22:13:15.469Z,10.98
2018-05-27T22:15:42.959Z,10.27
2018-05-27T22:18:11.198Z,11.00
2018-05-27T22:20:38.652Z,11.00
2018-05-27T22:23:06.118Z,10.45
2018-05-27T22:25:33.580Z,11.55
2018-05-27T22:28:01.048Z,10.32
2018-05-27T22:30:28.535Z,12.30
2018-05-27T22:32:56.000Z,10.88
2018-05-27T22:35:23.474Z,11.10
2018-05-27T22:37:50.931Z,11.68
2018-05-27T22:40:18.398Z,11.43
2018-05-27T22:42:45.873Z,11.27
2018-05-27T22:45:14.279Z,11.73
2018-05-27T22:47:41.735Z,11.27
2018-05-27T22:50:09.212Z,11.57
2018-05-27T22:52:37.451Z,12.52
2018-05-27T22:55:05.689Z,12.98
2018-05-27T22:57:33.149Z,13.62
2018-05-27T23:00:00.595Z,12.90
2018-05-27T23:02:28.065Z,13.70
2018-05-27T23:04:55.528Z,12.45
2018-05-27T23:07:23.012Z,13.32
2018-05-27T23:09:50.433Z,13.38
2018-05-27T23:12:17.880Z,11.82
2018-05-27T23:14:45.324Z,12.05
2018-05-27T23:17:12.802Z,13.77
2018-05-27T23:19:40.245Z,12.48
2018-05-27T23:22:07.691Z,12.85
2018-05-27T23:24:35.162Z,12.73
2018-05-27T23:27:02.624Z,12.40
2018-05-27T23:29:30.074Z,12.35
2018-05-27T23:31:57.535Z,12.93
2018-05-27T23:34:24.988Z,13.35
2018-05-27T23:36:52.514Z,13.30
2018-05-27T23:39:19.917Z,13.65
2018-05-27T23:41:47.388Z,14.05
2018-05-27T23:44:14.842Z,12.98
2018-05-27T23:46:42.284Z,14.27
2018-05-27T23:49:09.742Z,13.82
2018-05-27T23:51:37.197Z,12.95
2018-05-27T23:54:04.661Z,13.18
2018-05-27T23:56:32.105Z,13.93
2018-05-27T23:58:59.560Z,13.48
